sensor_id;sensor_type;location;lat;lon;timestamp;P1;durP1;ratioP1;P2;durP2;ratioP2
73699;SDS011;62005;50.082;8.988;2022-12-07T00:50:54;7.93;;;4.97;;
73699;SDS011;62005;50.082;8.988;2022-12-07T01:41:14;9.68;;;4.60;;
73699;SDS011;62005;50.082;8.988;2022-12-07T01:50:36;8.80;;;3.75;;
73699;SDS011;62005;50.082;8.988;2022-12-07T02:06:34;9.10;;;3.47;;
73699;SDS011;62005;50.082;8.988;2022-12-07T02:27:52;10.50;;;3.75;;
73699;SDS011;62005;50.082;8.988;2022-12-07T03:29:15;10.45;;;4.25;;
73699;SDS011;62005;50.082;8.988;2022-12-07T03:36:08;13.77;;;4.68;;
73699;SDS011;62005;50.082;8.988;2022-12-07T04:22:21;7.80;;;3.38;;
73699;SDS011;62005;50.082;8.988;2022-12-07T04:24:46;8.27;;;3.63;;
73699;SDS011;62005;50.082;8.988;2022-12-07T04:30:50;6.32;;;2.83;;
73699;SDS011;62005;50.082;8.988;2022-12-07T04:33:24;6.67;;;3.37;;
73699;SDS011;62005;50.082;8.988;2022-12-07T04:42:53;7.03;;;2.60;;
73699;SDS011;62005;50.082;8.988;2022-12-07T04:49:24;5.88;;;2.53;;
73699;SDS011;62005;50.082;8.988;2022-12-07T04:52:24;6.60;;;2.80;;
73699;SDS011;62005;50.082;8.988;2022-12-07T05:45:56;6.47;;;3.10;;
73699;SDS011;62005;50.082;8.988;2022-12-07T05:52:00;6.65;;;2.95;;
73699;SDS011;62005;50.082;8.988;2022-12-07T05:54:34;12.48;;;5.13;;
73699;SDS011;62005;50.082;8.988;2022-12-07T06:32:28;10.38;;;3.60;;
73699;SDS011;62005;50.082;8.988;2022-12-07T06:35:28;8.07;;;3.28;;
73699;SDS011;62005;50.082;8.988;2022-12-07T06:37:53;11.90;;;5.00;;
73699;SDS011;62005;50.082;8.988;2022-12-07T06:40:19;7.30;;;2.97;;
73699;SDS011;62005;50.082;8.988;2022-12-07T06:42:44;7.88;;;3.42;;
73699;SDS011;62005;50.082;8.988;2022-12-07T06:45:21;7.83;;;3.07;;
73699;SDS011;62005;50.082;8.988;2022-12-07T06:48:42;9.95;;;4.20;;
73699;SDS011;62005;50.082;8.988;2022-12-07T06:51:13;7.30;;;4.97;;
73699;SDS011;62005;50.082;8.988;2022-12-07T06:54:38;8.18;;;3.65;;
73699;SDS011;62005;50.082;8.988;2022-12-07T07:14:09;10.00;;;3.47;;
73699;SDS011;62005;50.082;8.988;2022-12-07T07:16:37;10.52;;;4.03;;
73699;SDS011;62005;50.082;8.988;2022-12-07T07:19:02;10.53;;;3.77;;
73699;SDS011;62005;50.082;8.988;2022-12-07T07:25:06;9.82;;;3.92;;
73699;SDS011;62005;50.082;8.988;2022-12-07T07:28:14;7.78;;;4.13;;
73699;SDS011;62005;50.082;8.988;2022-12-07T07:33:42;8.32;;;2.90;;
73699;SDS011;62005;50.082;8.988;2022-12-07T07:37:09;7.95;;;3.80;;
73699;SDS011;62005;50.082;8.988;2022-12-07T07:39:55;10.07;;;4.85;;
73699;SDS011;62005;50.082;8.988;2022-12-07T07:42:20;8.73;;;4.20;;
73699;SDS011;62005;50.082;8.988;2022-12-07T07:44:46;9.43;;;3.93;;
73699;SDS011;62005;50.082;8.988;2022-12-07T07:47:14;11.77;;;4.88;;
73699;SDS011;62005;50.082;8.988;2022-12-07T07:57:35;8.75;;;4.32;;
73699;SDS011;62005;50.082;8.988;2022-12-07T08:00:04;8.57;;;4.47;;
73699;SDS011;62005;50.082;8.988;2022-12-07T08:02:35;11.50;;;4.00;;
73699;SDS011;62005;50.082;8.988;2022-12-07T08:07:27;8.33;;;4.00;;
73699;SDS011;62005;50.082;8.988;2022-12-07T08:09:55;9.57;;;4.45;;
73699;SDS011;62005;50.082;8.988;2022-12-07T08:12:30;8.20;;;4.60;;
73699;SDS011;62005;50.082;8.988;2022-12-07T08:14:55;7.45;;;4.13;;
73699;SDS011;62005;50.082;8.988;2022-12-07T08:17:30;10.13;;;4.47;;
73699;SDS011;62005;50.082;8.988;2022-12-07T08:20:32;9.25;;;4.15;;
73699;SDS011;62005;50.082;8.988;2022-12-07T08:26:27;9.60;;;4.45;;
73699;SDS011;62005;50.082;8.988;2022-12-07T08:29:34;8.27;;;4.38;;
73699;SDS011;62005;50.082;8.988;2022-12-07T08:32:08;7.82;;;4.63;;
73699;SDS011;62005;50.082;8.988;2022-12-07T08:34:55;7.63;;;4.18;;
73699;SDS011;62005;50.082;8.988;2022-12-07T08:37:50;10.55;;;4.10;;
73699;SDS011;62005;50.082;8.988;2022-12-07T08:40:38;7.45;;;4.07;;
73699;SDS011;62005;50.082;8.988;2022-12-07T08:50:09;9.27;;;4.20;;
73699;SDS011;62005;50.082;8.988;2022-12-07T08:52:47;10.30;;;4.72;;
73699;SDS011;62005;50.082;8.988;2022-12-07T09:02:06;8.40;;;3.85;;
73699;SDS011;62005;50.082;8.988;2022-12-07T09:04:47;8.85;;;3.97;;
73699;SDS011;62005;50.082;8.988;2022-12-07T09:11:10;7.82;;;3.88;;
73699;SDS011;62005;50.082;8.988;2022-12-07T09:13:18;7.57;;;3.20;;
73699;SDS011;62005;50.082;8.988;2022-12-07T09:16:21;6.65;;;3.80;;
73699;SDS011;62005;50.082;8.988;2022-12-07T09:18:55;7.80;;;4.30;;
73699;SDS011;62005;50.082;8.988;2022-12-07T09:21:39;8.60;;;5.45;;
73699;SDS011;62005;50.082;8.988;2022-12-07T09:24:24;9.73;;;4.45;;
73699;SDS011;62005;50.082;8.988;2022-12-07T09:27:29;9.90;;;3.85;;
73699;SDS011;62005;50.082;8.988;2022-12-07T09:30:30;10.65;;;4.40;;
73699;SDS011;62005;50.082;8.988;2022-12-07T09:33:42;8.10;;;3.97;;
73699;SDS011;62005;50.082;8.988;2022-12-07T09:36:30;7.65;;;3.78;;
73699;SDS011;62005;50.082;8.988;2022-12-07T09:38:58;8.68;;;4.22;;
73699;SDS011;62005;50.082;8.988;2022-12-07T09:41:53;9.25;;;4.03;;
73699;SDS011;62005;50.082;8.988;2022-12-07T09:44:34;7.22;;;4.10;;
73699;SDS011;62005;50.082;8.988;2022-12-07T09:50:21;7.55;;;3.60;;
73699;SDS011;62005;50.082;8.988;2022-12-07T09:53:04;10.00;;;3.70;;
73699;SDS011;62005;50.082;8.988;2022-12-07T09:59:29;6.50;;;3.25;;
73699;SDS011;62005;50.082;8.988;2022-12-07T10:04:57;7.25;;;3.35;;
73699;SDS011;62005;50.082;8.988;2022-12-07T10:07:30;9.32;;;4.00;;
73699;SDS011;62005;50.082;8.988;2022-12-07T10:14:58;6.47;;;2.85;;
73699;SDS011;62005;50.082;8.988;2022-12-07T10:20:31;7.40;;;3.42;;
73699;SDS011;62005;50.082;8.988;2022-12-07T10:23:00;8.23;;;3.40;;
73699;SDS011;62005;50.082;8.988;2022-12-07T10:25:42;8.07;;;3.70;;
73699;SDS011;62005;50.082;8.988;2022-12-07T10:28:33;8.63;;;4.38;;
73699;SDS011;62005;50.082;8.988;2022-12-07T10:31:20;6.43;;;3.15;;
73699;SDS011;62005;50.082;8.988;2022-12-07T10:33:54;6.82;;;2.55;;
73699;SDS011;62005;50.082;8.988;2022-12-07T10:49:01;6.43;;;2.85;;
73699;SDS011;62005;50.082;8.988;2022-12-07T11:19:44;6.57;;;3.08;;
73699;SDS011;62005;50.082;8.988;2022-12-07T11:42:05;3.53;;;1.58;;
73699;SDS011;62005;50.082;8.988;2022-12-07T11:51:57;2.75;;;0.75;;
73699;SDS011;62005;50.082;8.988;2022-12-07T12:04:13;5.22;;;0.52;;
73699;SDS011;62005;50.082;8.988;2022-12-07T13:02:32;3.50;;;1.67;;
73699;SDS011;62005;50.082;8.988;2022-12-07T13:09:14;6.13;;;2.08;;
73699;SDS011;62005;50.082;8.988;2022-12-07T13:21:46;5.13;;;1.60;;
73699;SDS011;62005;50.082;8.988;2022-12-07T13:28:10;4.57;;;2.20;;
73699;SDS011;62005;50.082;8.988;2022-12-07T13:41:29;6.30;;;2.10;;
73699;SDS011;62005;50.082;8.988;2022-12-07T13:44:11;2.90;;;1.30;;
73699;SDS011;62005;50.082;8.988;2022-12-07T13:46:51;5.18;;;1.10;;
73699;SDS011;62005;50.082;8.988;2022-12-07T13:49:27;3.15;;;0.55;;
73699;SDS011;62005;50.082;8.988;2022-12-07T13:54:49;1.52;;;0.32;;
73699;SDS011;62005;50.082;8.988;2022-12-07T13:57:22;2.67;;;0.50;;
73699;SDS011;62005;50.082;8.988;2022-12-07T13:59:50;7.63;;;0.50;;
73699;SDS011;62005;50.082;8.988;2022-12-07T14:02:20;1.50;;;0.43;;
73699;SDS011;62005;50.082;8.988;2022-12-07T14:05:05;2.40;;;0.60;;
73699;SDS011;62005;50.082;8.988;2022-12-07T14:07:32;7.55;;;1.00;;
73699;SDS011;62005;50.082;8.988;2022-12-07T14:12:32;3.80;;;1.23;;
73699;SDS011;62005;50.082;8.988;2022-12-07T14:15:02;5.93;;;1.13;;
73699;SDS011;62005;50.082;8.988;2022-12-07T14:17:28;8.73;;;1.40;;
73699;SDS011;62005;50.082;8.988;2022-12-07T14:19:59;4.45;;;1.25;;
73699;SDS011;62005;50.082;8.988;2022-12-07T14:22:29;2.47;;;1.30;;
73699;SDS011;62005;50.082;8.988;2022-12-07T14:27:59;5.88;;;1.42;;
73699;SDS011;62005;50.082;8.988;2022-12-07T14:30:42;4.65;;;1.95;;
73699;SDS011;62005;50.082;8.988;2022-12-07T14:33:08;2.13;;;1.13;;
73699;SDS011;62005;50.082;8.988;2022-12-07T14:35:34;2.50;;;0.95;;
73699;SDS011;62005;50.082;8.988;2022-12-07T14:38:05;2.53;;;1.20;;
73699;SDS011;62005;50.082;8.988;2022-12-07T14:40:31;6.35;;;2.92;;
73699;SDS011;62005;50.082;8.988;2022-12-07T14:43:00;4.20;;;1.90;;
73699;SDS011;62005;50.082;8.988;2022-12-07T14:45:26;8.00;;;2.00;;
73699;SDS011;62005;50.082;8.988;2022-12-07T14:47:52;6.85;;;3.53;;
73699;SDS011;62005;50.082;8.988;2022-12-07T14:50:19;10.45;;;5.18;;
73699;SDS011;62005;50.082;8.988;2022-12-07T14:52:51;6.43;;;3.38;;
73699;SDS011;62005;50.082;8.988;2022-12-07T14:55:25;6.13;;;3.63;;
73699;SDS011;62005;50.082;8.988;2022-12-07T14:57:52;5.82;;;3.28;;
73699;SDS011;62005;50.082;8.988;2022-12-07T15:00:18;6.82;;;4.57;;
73699;SDS011;62005;50.082;8.988;2022-12-07T15:02:46;7.47;;;3.28;;
73699;SDS011;62005;50.082;8.988;2022-12-07T15:07:50;9.25;;;4.50;;
73699;SDS011;62005;50.082;8.988;2022-12-07T15:10:26;9.13;;;4.43;;
73699;SDS011;62005;50.082;8.988;2022-12-07T15:12:58;8.27;;;4.43;;
73699;SDS011;62005;50.082;8.988;2022-12-07T15:15:42;9.30;;;4.50;;
73699;SDS011;62005;50.082;8.988;2022-12-07T15:18:08;7.50;;;3.23;;
73699;SDS011;62005;50.082;8.988;2022-12-07T15:20:33;6.67;;;3.23;;
73699;SDS011;62005;50.082;8.988;2022-12-07T15:22:58;9.57;;;3.60;;
73699;SDS011;62005;50.082;8.988;2022-12-07T15:25:24;7.63;;;3.30;;
73699;SDS011;62005;50.082;8.988;2022-12-07T15:27:49;9.25;;;2.85;;
73699;SDS011;62005;50.082;8.988;2022-12-07T15:30:18;9.55;;;4.57;;
73699;SDS011;62005;50.082;8.988;2022-12-07T15:32:51;9.70;;;4.03;;
73699;SDS011;62005;50.082;8.988;2022-12-07T15:35:23;5.63;;;3.17;;
73699;SDS011;62005;50.082;8.988;2022-12-07T15:37:57;5.57;;;2.70;;
73699;SDS011;62005;50.082;8.988;2022-12-07T15:40:25;9.48;;;3.33;;
73699;SDS011;62005;50.082;8.988;2022-12-07T15:42:53;6.55;;;2.95;;
73699;SDS011;62005;50.082;8.988;2022-12-07T15:45:19;7.75;;;3.53;;
73699;SDS011;62005;50.082;8.988;2022-12-07T15:47:48;9.40;;;4.03;;
73699;SDS011;62005;50.082;8.988;2022-12-07T15:50:16;8.82;;;4.15;;
73699;SDS011;62005;50.082;8.988;2022-12-07T15:52:45;10.20;;;5.07;;
73699;SDS011;62005;50.082;8.988;2022-12-07T15:55:11;6.40;;;2.80;;
73699;SDS011;62005;50.082;8.988;2022-12-07T15:57:45;5.82;;;3.28;;
73699;SDS011;62005;50.082;8.988;2022-12-07T16:00:23;5.32;;;1.75;;
73699;SDS011;62005;50.082;8.988;2022-12-07T16:05:26;2.88;;;0.75;;
73699;SDS011;62005;50.082;8.988;2022-12-07T16:07:58;5.38;;;1.40;;
73699;SDS011;62005;50.082;8.988;2022-12-07T16:10:25;5.55;;;1.38;;
73699;SDS011;62005;50.082;8.988;2022-12-07T16:12:55;4.50;;;1.70;;
73699;SDS011;62005;50.082;8.988;2022-12-07T16:15:21;4.63;;;1.58;;
73699;SDS011;62005;50.082;8.988;2022-12-07T16:18:00;7.78;;;2.40;;
73699;SDS011;62005;50.082;8.988;2022-12-07T16:20:47;5.55;;;1.58;;
73699;SDS011;62005;50.082;8.988;2022-12-07T16:23:13;3.88;;;2.20;;
73699;SDS011;62005;50.082;8.988;2022-12-07T16:25:46;4.82;;;2.55;;
73699;SDS011;62005;50.082;8.988;2022-12-07T16:28:12;8.05;;;4.65;;
73699;SDS011;62005;50.082;8.988;2022-12-07T16:30:37;5.85;;;3.10;;
73699;SDS011;62005;50.082;8.988;2022-12-07T16:33:05;5.82;;;3.13;;
73699;SDS011;62005;50.082;8.988;2022-12-07T16:35:33;5.85;;;3.47;;
73699;SDS011;62005;50.082;8.988;2022-12-07T16:38:04;6.93;;;2.83;;
73699;SDS011;62005;50.082;8.988;2022-12-07T16:40:38;8.88;;;2.40;;
73699;SDS011;62005;50.082;8.988;2022-12-07T16:43:03;5.22;;;2.47;;
73699;SDS011;62005;50.082;8.988;2022-12-07T16:45:31;6.57;;;2.88;;
73699;SDS011;62005;50.082;8.988;2022-12-07T16:48:27;5.05;;;2.10;;
73699;SDS011;62005;50.082;8.988;2022-12-07T16:50:55;5.20;;;1.85;;
73699;SDS011;62005;50.082;8.988;2022-12-07T16:53:23;4.53;;;1.60;;
73699;SDS011;62005;50.082;8.988;2022-12-07T16:55:56;5.72;;;2.90;;
73699;SDS011;62005;50.082;8.988;2022-12-07T16:58:27;3.10;;;1.55;;
73699;SDS011;62005;50.082;8.988;2022-12-07T17:00:56;6.40;;;1.95;;
73699;SDS011;62005;50.082;8.988;2022-12-07T17:03:30;5.30;;;1.92;;
73699;SDS011;62005;50.082;8.988;2022-12-07T17:06:01;5.10;;;1.73;;
73699;SDS011;62005;50.082;8.988;2022-12-07T17:08:38;5.95;;;2.28;;
73699;SDS011;62005;50.082;8.988;2022-12-07T17:13:50;7.75;;;1.77;;
73699;SDS011;62005;50.082;8.988;2022-12-07T17:16:40;2.83;;;1.13;;
73699;SDS011;62005;50.082;8.988;2022-12-07T17:19:13;4.28;;;2.40;;
73699;SDS011;62005;50.082;8.988;2022-12-07T17:21:40;3.80;;;1.77;;
73699;SDS011;62005;50.082;8.988;2022-12-07T17:24:07;4.63;;;1.70;;
73699;SDS011;62005;50.082;8.988;2022-12-07T17:26:34;5.38;;;2.35;;
73699;SDS011;62005;50.082;8.988;2022-12-07T17:28:59;5.90;;;2.00;;
73699;SDS011;62005;50.082;8.988;2022-12-07T17:31:25;6.32;;;2.45;;
73699;SDS011;62005;50.082;8.988;2022-12-07T17:33:57;6.47;;;2.50;;
73699;SDS011;62005;50.082;8.988;2022-12-07T17:36:24;5.30;;;2.30;;
73699;SDS011;62005;50.082;8.988;2022-12-07T17:38:56;4.78;;;1.88;;
73699;SDS011;62005;50.082;8.988;2022-12-07T17:41:29;5.47;;;2.22;;
73699;SDS011;62005;50.082;8.988;2022-12-07T17:44:14;5.75;;;1.88;;
73699;SDS011;62005;50.082;8.988;2022-12-07T17:46:41;5.35;;;1.92;;
73699;SDS011;62005;50.082;8.988;2022-12-07T17:49:11;5.82;;;2.10;;
73699;SDS011;62005;50.082;8.988;2022-12-07T17:51:45;6.57;;;2.17;;
73699;SDS011;62005;50.082;8.988;2022-12-07T17:54:29;5.57;;;2.35;;
73699;SDS011;62005;50.082;8.988;2022-12-07T17:56:55;5.17;;;2.50;;
73699;SDS011;62005;50.082;8.988;2022-12-07T17:59:23;5.45;;;2.58;;
73699;SDS011;62005;50.082;8.988;2022-12-07T18:01:56;5.30;;;2.50;;
73699;SDS011;62005;50.082;8.988;2022-12-07T18:04:23;4.32;;;2.38;;
73699;SDS011;62005;50.082;8.988;2022-12-07T18:06:51;6.43;;;3.05;;
73699;SDS011;62005;50.082;8.988;2022-12-07T18:09:19;6.40;;;2.15;;
73699;SDS011;62005;50.082;8.988;2022-12-07T18:11:46;4.85;;;1.73;;
73699;SDS011;62005;50.082;8.988;2022-12-07T18:14:12;6.53;;;2.55;;
73699;SDS011;62005;50.082;8.988;2022-12-07T18:16:40;6.32;;;2.22;;
73699;SDS011;62005;50.082;8.988;2022-12-07T18:19:05;6.28;;;2.90;;
73699;SDS011;62005;50.082;8.988;2022-12-07T18:21:37;7.85;;;2.90;;
73699;SDS011;62005;50.082;8.988;2022-12-07T18:24:13;8.00;;;3.55;;
73699;SDS011;62005;50.082;8.988;2022-12-07T18:26:40;6.43;;;3.13;;
73699;SDS011;62005;50.082;8.988;2022-12-07T18:29:07;10.25;;;4.10;;
73699;SDS011;62005;50.082;8.988;2022-12-07T18:31:37;16.33;;;5.43;;
73699;SDS011;62005;50.082;8.988;2022-12-07T18:34:02;16.15;;;4.97;;
73699;SDS011;62005;50.082;8.988;2022-12-07T18:36:33;6.75;;;3.35;;
73699;SDS011;62005;50.082;8.988;2022-12-07T18:38:59;7.25;;;3.35;;
73699;SDS011;62005;50.082;8.988;2022-12-07T18:41:26;7.63;;;2.97;;
73699;SDS011;62005;50.082;8.988;2022-12-07T18:43:52;7.47;;;3.03;;
73699;SDS011;62005;50.082;8.988;2022-12-07T18:46:19;8.20;;;3.38;;
73699;SDS011;62005;50.082;8.988;2022-12-07T18:51:14;6.22;;;3.08;;
73699;SDS011;62005;50.082;8.988;2022-12-07T18:53:41;9.60;;;3.25;;
73699;SDS011;62005;50.082;8.988;2022-12-07T18:56:10;8.75;;;3.15;;
73699;SDS011;62005;50.082;8.988;2022-12-07T18:58:42;4.60;;;2.88;;
73699;SDS011;62005;50.082;8.988;2022-12-07T19:01:28;8.68;;;5.63;;
73699;SDS011;62005;50.082;8.988;2022-12-07T19:03:56;5.55;;;2.78;;
73699;SDS011;62005;50.082;8.988;2022-12-07T19:06:24;10.18;;;4.18;;
73699;SDS011;62005;50.082;8.988;2022-12-07T19:08:52;7.20;;;2.78;;
73699;SDS011;62005;50.082;8.988;2022-12-07T19:11:18;8.02;;;3.40;;
73699;SDS011;62005;50.082;8.988;2022-12-07T19:14:06;7.18;;;3.55;;
73699;SDS011;62005;50.082;8.988;2022-12-07T19:16:32;8.00;;;4.22;;
73699;SDS011;62005;50.082;8.988;2022-12-07T19:18:58;7.97;;;2.20;;
73699;SDS011;62005;50.082;8.988;2022-12-07T19:21:23;5.20;;;2.28;;
73699;SDS011;62005;50.082;8.988;2022-12-07T19:23:50;4.72;;;2.50;;
73699;SDS011;62005;50.082;8.988;2022-12-07T19:26:16;6.07;;;3.08;;
73699;SDS011;62005;50.082;8.988;2022-12-07T19:28:41;4.93;;;1.90;;
73699;SDS011;62005;50.082;8.988;2022-12-07T19:31:07;6.63;;;2.45;;
73699;SDS011;62005;50.082;8.988;2022-12-07T19:33:34;4.80;;;2.17;;
73699;SDS011;62005;50.082;8.988;2022-12-07T19:42:20;5.53;;;2.08;;
73699;SDS011;62005;50.082;8.988;2022-12-07T19:45:19;6.85;;;2.78;;
73699;SDS011;62005;50.082;8.988;2022-12-07T19:51:20;9.43;;;4.95;;
73699;SDS011;62005;50.082;8.988;2022-12-07T19:53:46;6.93;;;3.33;;
73699;SDS011;62005;50.082;8.988;2022-12-07T19:56:18;6.53;;;2.63;;
73699;SDS011;62005;50.082;8.988;2022-12-07T19:58:46;6.97;;;2.47;;
73699;SDS011;62005;50.082;8.988;2022-12-07T20:01:13;7.88;;;3.10;;
73699;SDS011;62005;50.082;8.988;2022-12-07T20:03:41;5.22;;;2.42;;
73699;SDS011;62005;50.082;8.988;2022-12-07T20:06:11;7.78;;;2.80;;
73699;SDS011;62005;50.082;8.988;2022-12-07T20:08:40;4.47;;;2.03;;
73699;SDS011;62005;50.082;8.988;2022-12-07T20:11:16;5.18;;;2.35;;
73699;SDS011;62005;50.082;8.988;2022-12-07T20:14:04;5.18;;;1.77;;
73699;SDS011;62005;50.082;8.988;2022-12-07T20:16:31;4.72;;;1.58;;
73699;SDS011;62005;50.082;8.988;2022-12-07T20:18:58;5.35;;;2.50;;
73699;SDS011;62005;50.082;8.988;2022-12-07T20:21:24;4.10;;;2.00;;
73699;SDS011;62005;50.082;8.988;2022-12-07T20:23:52;4.43;;;1.55;;
73699;SDS011;62005;50.082;8.988;2022-12-07T20:26:21;4.68;;;1.55;;
73699;SDS011;62005;50.082;8.988;2022-12-07T20:28:47;5.72;;;2.08;;
73699;SDS011;62005;50.082;8.988;2022-12-07T20:34:31;10.23;;;4.10;;
73699;SDS011;62005;50.082;8.988;2022-12-07T20:37:15;5.07;;;2.42;;
73699;SDS011;62005;50.082;8.988;2022-12-07T20:39:40;29.65;;;13.68;;
73699;SDS011;62005;50.082;8.988;2022-12-07T20:42:09;13.23;;;8.07;;
73699;SDS011;62005;50.082;8.988;2022-12-07T20:44:54;6.47;;;3.65;;
73699;SDS011;62005;50.082;8.988;2022-12-07T20:47:20;6.53;;;4.18;;
73699;SDS011;62005;50.082;8.988;2022-12-07T20:49:45;6.50;;;2.88;;
73699;SDS011;62005;50.082;8.988;2022-12-07T20:52:11;5.63;;;2.75;;
73699;SDS011;62005;50.082;8.988;2022-12-07T20:54:37;7.27;;;2.67;;
73699;SDS011;62005;50.082;8.988;2022-12-07T20:57:02;12.40;;;7.45;;
73699;SDS011;62005;50.082;8.988;2022-12-07T20:59:28;15.27;;;6.55;;
73699;SDS011;62005;50.082;8.988;2022-12-07T21:01:57;8.10;;;3.88;;
73699;SDS011;62005;50.082;8.988;2022-12-07T21:04:22;10.70;;;3.63;;
73699;SDS011;62005;50.082;8.988;2022-12-07T21:06:50;4.88;;;2.47;;
73699;SDS011;62005;50.082;8.988;2022-12-07T21:09:15;8.83;;;3.67;;
73699;SDS011;62005;50.082;8.988;2022-12-07T21:11:45;9.75;;;5.68;;
73699;SDS011;62005;50.082;8.988;2022-12-07T21:14:11;7.18;;;4.95;;
73699;SDS011;62005;50.082;8.988;2022-12-07T21:16:36;9.43;;;5.33;;
73699;SDS011;62005;50.082;8.988;2022-12-07T21:19:04;5.15;;;3.00;;
73699;SDS011;62005;50.082;8.988;2022-12-07T21:21:30;5.63;;;3.15;;
73699;SDS011;62005;50.082;8.988;2022-12-07T21:23:57;5.47;;;2.72;;
73699;SDS011;62005;50.082;8.988;2022-12-07T21:26:24;7.00;;;4.20;;
73699;SDS011;62005;50.082;8.988;2022-12-07T21:29:06;6.15;;;3.00;;
73699;SDS011;62005;50.082;8.988;2022-12-07T21:31:35;6.82;;;3.95;;
73699;SDS011;62005;50.082;8.988;2022-12-07T21:34:01;6.40;;;3.37;;
73699;SDS011;62005;50.082;8.988;2022-12-07T21:36:27;8.20;;;3.63;;
73699;SDS011;62005;50.082;8.988;2022-12-07T21:38:53;8.20;;;3.58;;
73699;SDS011;62005;50.082;8.988;2022-12-07T21:41:22;9.02;;;4.38;;
73699;SDS011;62005;50.082;8.988;2022-12-07T21:43:58;8.95;;;3.70;;
73699;SDS011;62005;50.082;8.988;2022-12-07T21:46:25;5.40;;;3.15;;
73699;SDS011;62005;50.082;8.988;2022-12-07T21:48:56;7.75;;;3.58;;
73699;SDS011;62005;50.082;8.988;2022-12-07T21:51:25;6.90;;;3.20;;
73699;SDS011;62005;50.082;8.988;2022-12-07T21:53:53;4.88;;;2.75;;
73699;SDS011;62005;50.082;8.988;2022-12-07T21:56:23;9.25;;;2.97;;
73699;SDS011;62005;50.082;8.988;2022-12-07T21:58:53;9.82;;;3.03;;
73699;SDS011;62005;50.082;8.988;2022-12-07T22:01:23;5.93;;;2.80;;
73699;SDS011;62005;50.082;8.988;2022-12-07T22:06:16;5.95;;;3.40;;
73699;SDS011;62005;50.082;8.988;2022-12-07T22:18:04;7.22;;;2.90;;
73699;SDS011;62005;50.082;8.988;2022-12-07T22:20:33;6.82;;;3.17;;
73699;SDS011;62005;50.082;8.988;2022-12-07T22:22:59;8.57;;;3.03;;
73699;SDS011;62005;50.082;8.988;2022-12-07T22:25:24;9.48;;;2.78;;
73699;SDS011;62005;50.082;8.988;2022-12-07T22:27:52;8.27;;;3.88;;
73699;SDS011;62005;50.082;8.988;2022-12-07T22:30:17;8.38;;;3.67;;
73699;SDS011;62005;50.082;8.988;2022-12-07T22:32:43;9.73;;;3.70;;
73699;SDS011;62005;50.082;8.988;2022-12-07T22:35:08;9.03;;;3.57;;
73699;SDS011;62005;50.082;8.988;2022-12-07T22:37:33;6.60;;;3.70;;
73699;SDS011;62005;50.082;8.988;2022-12-07T22:39:59;7.10;;;3.60;;
73699;SDS011;62005;50.082;8.988;2022-12-07T22:42:24;7.75;;;3.40;;
73699;SDS011;62005;50.082;8.988;2022-12-07T22:44:50;9.68;;;3.95;;
73699;SDS011;62005;50.082;8.988;2022-12-07T22:47:15;9.77;;;4.50;;
73699;SDS011;62005;50.082;8.988;2022-12-07T22:49:41;7.07;;;3.65;;
73699;SDS011;62005;50.082;8.988;2022-12-07T22:52:06;6.50;;;3.53;;
73699;SDS011;62005;50.082;8.988;2022-12-07T22:54:32;7.53;;;3.78;;
73699;SDS011;62005;50.082;8.988;2022-12-07T22:57:00;7.63;;;3.65;;
73699;SDS011;62005;50.082;8.988;2022-12-07T22:59:31;7.93;;;3.67;;
73699;SDS011;62005;50.082;8.988;2022-12-07T23:02:08;7.07;;;3.15;;
73699;SDS011;62005;50.082;8.988;2022-12-07T23:04:33;9.98;;;3.45;;
73699;SDS011;62005;50.082;8.988;2022-12-07T23:06:58;8.20;;;4.00;;
73699;SDS011;62005;50.082;8.988;2022-12-07T23:09:24;8.60;;;3.93;;
73699;SDS011;62005;50.082;8.988;2022-12-07T23:11:54;7.03;;;3.35;;
73699;SDS011;62005;50.082;8.988;2022-12-07T23:14:39;7.35;;;3.35;;
73699;SDS011;62005;50.082;8.988;2022-12-07T23:17:05;11.32;;;3.92;;
73699;SDS011;62005;50.082;8.988;2022-12-07T23:19:30;7.93;;;3.85;;
73699;SDS011;62005;50.082;8.988;2022-12-07T23:21:56;7.63;;;4.07;;
73699;SDS011;62005;50.082;8.988;2022-12-07T23:24:25;7.78;;;3.70;;
73699;SDS011;62005;50.082;8.988;2022-12-07T23:26:59;8.43;;;3.65;;
73699;SDS011;62005;50.082;8.988;2022-12-07T23:29:26;8.00;;;3.42;;
73699;SDS011;62005;50.082;8.988;2022-12-07T23:32:05;8.40;;;3.75;;
73699;SDS011;62005;50.082;8.988;2022-12-07T23:34:32;8.00;;;3.50;;
73699;SDS011;62005;50.082;8.988;2022-12-07T23:36:58;6.82;;;3.55;;
73699;SDS011;62005;50.082;8.988;2022-12-07T23:39:24;9.88;;;4.03;;
73699;SDS011;62005;50.082;8.988;2022-12-07T23:42:02;9.23;;;3.67;;
73699;SDS011;62005;50.082;8.988;2022-12-07T23:44:33;10.85;;;4.47;;
73699;SDS011;62005;50.082;8.988;2022-12-07T23:47:08;7.38;;;3.60;;
73699;SDS011;62005;50.082;8.988;2022-12-07T23:49:39;10.20;;;4.32;;
73699;SDS011;62005;50.082;8.988;2022-12-07T23:52:09;10.02;;;4.15;;
73699;SDS011;62005;50.082;8.988;2022-12-07T23:54:34;9.13;;;4.68;;
73699;SDS011;62005;50.082;8.988;2022-12-07T23:57:01;11.02;;;4.35;;
